createdAt,value
2018-09-06T00:00:55.619Z,15.60
2018-09-06T00:01:55.640Z,14.20
2018-09-06T00:02:55.658Z,12.20
2018-09-06T00:03:55.677Z,13.10
2018-09-06T00:04:55.702Z,10.10
2018-09-06T00:05:55.717Z,11.80
2018-09-06T00:06:55.736Z,11.10
2018-09-06T00:07:55.754Z,12.40
2018-09-06T00:08:55.774Z,11.70
2018-09-06T00:09:55.793Z,12.40
2018-09-06T00:10:55.811Z,10.60
2018-09-06T00:11:55.829Z,11.20
2018-09-06T00:12:55.850Z,13.00
2018-09-06T00:13:55.872Z,11.10
2018-09-06T00:14:55.889Z,17.20
2018-09-06T00:15:55.910Z,13.50
2018-09-06T00:16:55.929Z,12.00
2018-09-06T00:17:55.946Z,11.20
2018-09-06T00:18:55.968Z,13.50
2018-09-06T00:19:56.001Z,11.40
2018-09-06T00:20:56.005Z,12.60
2018-09-06T00:21:56.026Z,13.30
2018-09-06T00:22:56.043Z,10.70
2018-09-06T00:23:56.064Z,13.90
2018-09-06T00:24:56.086Z,11.20
2018-09-06T00:25:56.102Z,14.70
2018-09-06T00:26:56.137Z,11.80
2018-09-06T00:27:56.142Z,11.10
2018-09-06T00:28:56.164Z,10.90
2018-09-06T00:29:56.182Z,11.70
2018-09-06T00:30:56.200Z,10.90
2018-09-06T00:31:56.217Z,11.70
2018-09-06T00:32:56.235Z,12.60
2018-09-06T00:33:56.259Z,13.90
2018-09-06T00:34:56.280Z,13.90
2018-09-06T00:35:56.297Z,11.40
2018-09-06T00:36:56.315Z,11.20
2018-09-06T00:37:56.335Z,11.40
2018-09-06T00:38:56.353Z,10.00
2018-09-06T00:39:56.377Z,11.00
2018-09-06T00:40:56.396Z,12.10
2018-09-06T00:41:56.412Z,11.70
2018-09-06T00:42:56.431Z,15.10
2018-09-06T00:43:56.458Z,11.20
2018-09-06T00:44:56.472Z,12.40
2018-09-06T00:45:56.497Z,13.30
2018-09-06T00:46:56.509Z,12.20
2018-09-06T00:47:56.526Z,14.00
2018-09-06T00:48:56.545Z,12.50
2018-09-06T00:49:56.566Z,11.40
2018-09-06T00:50:56.583Z,13.40
2018-09-06T00:51:56.603Z,11.80
2018-09-06T00:52:56.626Z,11.60
2018-09-06T00:53:56.643Z,12.70
2018-09-06T00:54:56.660Z,12.60
2018-09-06T00:55:56.689Z,12.60
2018-09-06T00:56:56.704Z,14.50
2018-09-06T00:57:56.716Z,14.80
2018-09-06T00:58:56.741Z,16.40
2018-09-06T00:59:56.760Z,12.40
2018-09-06T01:00:56.778Z,11.80
2018-09-06T01:01:56.801Z,13.90
2018-09-06T01:02:56.815Z,11.60
2018-09-06T01:03:56.832Z,10.20
2018-09-06T01:04:56.856Z,15.50
2018-09-06T01:05:56.872Z,13.10
2018-09-06T01:06:56.896Z,12.90
2018-09-06T01:07:56.910Z,13.70
2018-09-06T01:08:56.934Z,14.40
2018-09-06T01:09:56.951Z,13.90
2018-09-06T01:10:56.969Z,14.40
2018-09-06T01:11:56.988Z,12.10
2018-09-06T01:12:57.008Z,12.40
2018-09-06T01:13:57.028Z,13.30
2018-09-06T01:14:57.045Z,12.50
2018-09-06T01:15:57.066Z,11.20
2018-09-06T01:16:57.084Z,11.90
2018-09-06T01:17:57.105Z,12.50
2018-09-06T01:18:57.124Z,12.40
2018-09-06T01:19:57.140Z,10.60
2018-09-06T01:20:57.162Z,11.10
2018-09-06T01:21:57.178Z,14.60
2018-09-06T01:22:57.196Z,9.60
2018-09-06T01:23:57.219Z,12.70
2018-09-06T01:24:57.235Z,12.60
2018-09-06T01:25:57.255Z,13.10
2018-09-06T01:26:57.285Z,14.70
2018-09-06T01:27:57.377Z,12.60
2018-09-06T01:28:57.334Z,11.90
2018-09-06T01:29:57.569Z,12.70
2018-09-06T01:30:57.400Z,12.10
2018-09-06T01:31:57.433Z,12.90
2018-09-06T01:32:57.521Z,11.90
2018-09-06T01:33:57.454Z,10.90
2018-09-06T01:34:57.605Z,11.60
2018-09-06T01:35:57.454Z,11.60
2018-09-06T01:36:57.489Z,11.80
2018-09-06T01:37:57.539Z,11.50
2018-09-06T01:38:57.515Z,11.90
2018-09-06T01:39:57.556Z,13.50
2018-09-06T01:40:57.543Z,11.20
2018-09-06T01:41:57.562Z,11.00
2018-09-06T01:42:57.612Z,12.50
2018-09-06T01:43:57.608Z,15.50
2018-09-06T01:44:57.626Z,14.90
2018-09-06T01:45:57.637Z,10.40
2018-09-06T01:46:57.664Z,13.40
2018-09-06T01:47:57.694Z,10.30
2018-09-06T01:48:57.709Z,12.80
2018-09-06T01:49:57.716Z,12.60
2018-09-06T01:50:57.737Z,12.80
2018-09-06T01:51:57.755Z,11.60
2018-09-06T01:52:57.779Z,11.00
2018-09-06T01:53:57.791Z,16.30
2018-09-06T01:54:57.809Z,13.50
2018-09-06T01:55:57.834Z,13.30
2018-09-06T01:56:57.850Z,14.10
2018-09-06T01:57:57.913Z,14.20
2018-09-06T01:58:57.885Z,12.50
2018-09-06T01:59:57.909Z,12.50
2018-09-06T02:00:57.925Z,12.90
2018-09-06T02:01:58.109Z,13.90
2018-09-06T02:02:58.016Z,10.70
2018-09-06T02:03:57.982Z,13.20
2018-09-06T02:04:57.996Z,12.20
2018-09-06T02:05:58.024Z,11.70
2018-09-06T02:06:58.040Z,10.70
2018-09-06T02:07:58.059Z,12.80
2018-09-06T02:08:58.084Z,10.30
2018-09-06T02:09:58.092Z,11.20
2018-09-06T02:10:58.116Z,14.00
2018-09-06T02:11:58.133Z,13.90
2018-09-06T02:12:58.152Z,11.60
2018-09-06T02:13:58.168Z,12.50
2018-09-06T02:14:58.194Z,11.00
2018-09-06T02:15:58.207Z,11.30
2018-09-06T02:16:58.225Z,11.10
2018-09-06T02:17:58.244Z,13.30
2018-09-06T02:18:58.263Z,12.80
2018-09-06T02:19:58.284Z,12.50
2018-09-06T02:20:58.304Z,10.80
2018-09-06T02:21:58.322Z,13.60
2018-09-06T02:22:58.342Z,11.70
2018-09-06T02:23:58.360Z,11.30
2018-09-06T02:24:58.379Z,14.20
2018-09-06T02:25:58.397Z,12.60
2018-09-06T02:26:58.425Z,12.20
2018-09-06T02:27:58.434Z,13.10
2018-09-06T02:28:58.452Z,14.60
2018-09-06T02:29:58.474Z,10.10
2018-09-06T02:30:58.495Z,14.40
2018-09-06T02:31:58.511Z,13.50
2018-09-06T02:32:58.531Z,11.70
2018-09-06T02:33:58.553Z,12.10
2018-09-06T02:34:58.570Z,12.50
2018-09-06T02:35:58.588Z,11.50
2018-09-06T02:36:58.609Z,15.00
2018-09-06T02:37:58.625Z,13.00
2018-09-06T02:38:58.645Z,11.70
2018-09-06T02:39:58.662Z,11.50
2018-09-06T02:40:58.684Z,21.10
2018-09-06T02:41:58.706Z,11.00
2018-09-06T02:42:58.718Z,12.40
2018-09-06T02:43:58.739Z,13.70
2018-09-06T02:44:58.756Z,11.30
2018-09-06T02:45:58.781Z,12.40
2018-09-06T02:46:58.799Z,11.70
2018-09-06T02:47:58.814Z,13.20
2018-09-06T02:48:58.832Z,12.00
2018-09-06T02:49:58.852Z,16.00
2018-09-06T02:50:58.870Z,12.00
2018-09-06T02:51:58.889Z,10.30
2018-09-06T02:52:58.987Z,11.60
2018-09-06T02:53:59.003Z,15.30
2018-09-06T02:54:58.950Z,10.70
2018-09-06T02:55:58.965Z,11.50
2018-09-06T02:56:58.987Z,11.30
2018-09-06T02:57:59.002Z,14.20
2018-09-06T02:58:59.020Z,12.90
2018-09-06T02:59:59.038Z,12.20
2018-09-06T03:00:59.176Z,11.20
2018-09-06T03:01:59.094Z,14.70
2018-09-06T03:02:59.149Z,13.00
2018-09-06T03:03:59.125Z,12.80
2018-09-06T03:04:59.135Z,11.00
2018-09-06T03:05:59.157Z,11.90
2018-09-06T03:06:59.171Z,13.00
2018-09-06T03:07:59.193Z,14.20
2018-09-06T03:08:59.220Z,13.30
2018-09-06T03:09:59.234Z,14.40
2018-09-06T03:10:59.245Z,11.80
2018-09-06T03:11:59.264Z,14.10
2018-09-06T03:12:59.283Z,13.70
2018-09-06T03:13:59.303Z,12.30
2018-09-06T03:14:59.321Z,14.70
2018-09-06T03:15:59.340Z,12.70
2018-09-06T03:16:59.363Z,13.20
2018-09-06T03:17:59.387Z,13.00
2018-09-06T03:18:59.406Z,16.10
2018-09-06T03:19:59.416Z,13.30
2018-09-06T03:20:59.433Z,17.30
2018-09-06T03:21:59.453Z,11.10
2018-09-06T03:22:59.473Z,12.20
2018-09-06T03:23:59.486Z,12.80
2018-09-06T03:24:59.509Z,11.30
2018-09-06T03:25:59.527Z,11.80
2018-09-06T03:26:59.546Z,12.20
2018-09-06T03:27:59.566Z,11.40
2018-09-06T03:28:59.582Z,15.20
2018-09-06T03:29:59.605Z,14.90
2018-09-06T03:30:59.620Z,11.30
2018-09-06T03:31:59.643Z,11.70
2018-09-06T03:32:59.660Z,11.90
2018-09-06T03:33:59.675Z,11.40
2018-09-06T03:34:59.713Z,12.60
2018-09-06T03:35:59.779Z,11.80
2018-09-06T03:36:59.731Z,12.70
2018-09-06T03:37:59.751Z,11.40
2018-09-06T03:38:59.769Z,14.50
2018-09-06T03:39:59.791Z,14.90
2018-09-06T03:40:59.809Z,13.70
2018-09-06T03:41:59.828Z,12.30
2018-09-06T03:42:59.857Z,13.10
2018-09-06T03:43:59.864Z,14.70
2018-09-06T03:44:59.881Z,12.00
2018-09-06T03:45:59.899Z,13.00
2018-09-06T03:46:59.919Z,14.00
2018-09-06T03:47:59.940Z,14.70
2018-09-06T03:48:59.959Z,12.70
2018-09-06T03:49:59.976Z,13.10
2018-09-06T03:50:59.994Z,13.70
2018-09-06T03:52:00.012Z,12.60
2018-09-06T03:53:00.030Z,11.70
2018-09-06T03:54:00.048Z,11.80
2018-09-06T03:55:00.072Z,11.80
2018-09-06T03:56:00.088Z,17.90
2018-09-06T03:57:00.106Z,17.10
2018-09-06T03:58:00.127Z,14.30
2018-09-06T03:59:00.146Z,13.30
2018-09-06T04:00:00.159Z,13.80
2018-09-06T04:01:00.181Z,13.00
2018-09-06T04:02:00.205Z,14.30
2018-09-06T04:03:00.216Z,12.60
2018-09-06T04:04:00.235Z,13.60
2018-09-06T04:05:00.256Z,15.10
2018-09-06T04:06:00.282Z,12.30
2018-09-06T04:07:00.292Z,16.20
2018-09-06T04:08:00.309Z,12.50
2018-09-06T04:09:00.330Z,12.80
2018-09-06T04:10:00.348Z,12.70
2018-09-06T04:11:00.367Z,12.70
2018-09-06T04:12:00.381Z,13.90
2018-09-06T04:13:00.404Z,15.70
2018-09-06T04:14:00.422Z,12.40
2018-09-06T04:15:00.453Z,14.50
2018-09-06T04:16:00.463Z,10.90
2018-09-06T04:17:00.477Z,18.10
2018-09-06T04:18:00.494Z,16.60
2018-09-06T04:19:00.513Z,12.40
2018-09-06T04:20:00.534Z,15.50
2018-09-06T04:21:00.555Z,14.60
2018-09-06T04:22:00.571Z,13.70
2018-09-06T04:23:00.600Z,14.50
2018-09-06T04:24:00.606Z,13.20
2018-09-06T04:25:00.627Z,11.80
2018-09-06T04:26:00.647Z,13.10
2018-09-06T04:27:00.663Z,12.70
2018-09-06T04:28:00.690Z,12.10
2018-09-06T04:29:00.698Z,13.10
2018-09-06T04:30:00.723Z,14.60
2018-09-06T04:31:00.738Z,13.10
2018-09-06T04:32:00.757Z,15.30
2018-09-06T04:33:00.775Z,12.00
2018-09-06T04:34:00.794Z,13.10
2018-09-06T04:35:00.810Z,13.50
2018-09-06T04:36:00.886Z,12.10
2018-09-06T04:37:00.851Z,14.10
2018-09-06T04:38:00.866Z,14.70
2018-09-06T04:39:00.891Z,12.20
2018-09-06T04:40:00.905Z,12.80
2018-09-06T04:41:00.929Z,12.50
2018-09-06T04:42:00.942Z,14.40
2018-09-06T04:43:00.961Z,14.80
2018-09-06T04:44:00.996Z,15.10
2018-09-06T04:45:00.999Z,15.50
2018-09-06T04:46:01.015Z,12.10
2018-09-06T04:47:01.050Z,12.30
2018-09-06T04:48:01.052Z,12.50
2018-09-06T04:49:01.071Z,12.70
2018-09-06T04:50:01.100Z,15.30
2018-09-06T04:51:01.115Z,15.70
2018-09-06T04:52:01.127Z,10.50
2018-09-06T04:53:01.145Z,15.00
2018-09-06T04:54:01.162Z,13.90
2018-09-06T04:55:01.180Z,11.60
2018-09-06T04:56:01.203Z,15.00
2018-09-06T04:57:01.220Z,10.80
2018-09-06T04:58:01.240Z,16.50
2018-09-06T04:59:01.259Z,13.50
2018-09-06T05:00:01.277Z,16.10
2018-09-06T05:01:01.295Z,15.00
2018-09-06T05:02:01.313Z,16.60
2018-09-06T05:03:01.331Z,12.80
2018-09-06T05:04:01.388Z,13.70
2018-09-06T05:05:01.369Z,11.70
2018-09-06T05:06:01.387Z,14.10
2018-09-06T05:07:01.406Z,12.90
2018-09-06T05:08:01.424Z,12.80
2018-09-06T05:09:01.445Z,15.40
2018-09-06T05:10:01.465Z,13.40
2018-09-06T05:11:01.483Z,15.70
2018-09-06T05:12:01.503Z,16.90
2018-09-06T05:13:01.520Z,15.80
2018-09-06T05:14:01.537Z,18.50
2018-09-06T05:15:01.559Z,14.90
2018-09-06T05:16:01.583Z,11.80
2018-09-06T05:17:01.592Z,12.50
2018-09-06T05:18:01.613Z,14.80
2018-09-06T05:19:01.628Z,13.70
2018-09-06T05:20:01.648Z,13.10
2018-09-06T05:21:01.673Z,13.40
2018-09-06T05:22:01.737Z,19.40
2018-09-06T05:23:01.707Z,16.50
2018-09-06T05:24:01.769Z,20.30
2018-09-06T05:25:01.748Z,15.00
2018-09-06T05:26:01.761Z,20.00
2018-09-06T05:27:01.781Z,12.30
2018-09-06T05:28:01.798Z,15.20
2018-09-06T05:29:01.818Z,18.30
2018-09-06T05:30:01.854Z,16.90
2018-09-06T05:31:01.855Z,13.20
2018-09-06T05:32:01.874Z,12.20
2018-09-06T05:33:01.892Z,11.90
2018-09-06T05:34:01.921Z,16.10
2018-09-06T05:35:01.949Z,14.50
2018-09-06T05:36:01.995Z,15.60
2018-09-06T05:37:01.973Z,12.10
2018-09-06T05:38:02.034Z,12.80
2018-09-06T05:39:02.009Z,15.10
2018-09-06T05:40:02.030Z,12.00
2018-09-06T05:41:02.051Z,14.80
2018-09-06T05:42:02.070Z,11.00
2018-09-06T05:43:02.097Z,14.50
2018-09-06T05:44:02.130Z,12.70
2018-09-06T05:45:02.148Z,14.40
2018-09-06T05:46:02.175Z,13.30
2018-09-06T05:47:02.180Z,14.40
2018-09-06T05:48:02.182Z,16.30
2018-09-06T05:49:02.203Z,16.50
2018-09-06T05:50:02.225Z,21.90
2018-09-06T05:51:02.247Z,21.90
2018-09-06T05:52:02.274Z,17.90
2018-09-06T05:53:02.287Z,22.70
2018-09-06T05:54:02.304Z,18.00
2018-09-06T05:55:02.327Z,16.40
2018-09-06T05:56:02.348Z,16.00
2018-09-06T05:57:02.369Z,12.60
2018-09-06T05:58:02.440Z,9.90
2018-09-06T05:59:02.412Z,18.30
2018-09-06T06:00:02.497Z,10.80
2018-09-06T06:01:02.456Z,12.60
2018-09-06T06:02:02.480Z,11.00
2018-09-06T06:03:02.500Z,10.80
2018-09-06T06:04:02.524Z,13.30
2018-09-06T06:05:02.544Z,12.60
2018-09-06T06:06:02.566Z,15.30
2018-09-06T06:07:02.595Z,11.50
2018-09-06T06:08:02.672Z,11.80
2018-09-06T06:09:02.633Z,14.70
2018-09-06T06:10:02.655Z,13.80
2018-09-06T06:11:02.680Z,11.00
2018-09-06T06:12:02.748Z,9.80
2018-09-06T06:13:02.734Z,10.60
2018-09-06T06:14:02.745Z,11.10
2018-09-06T06:15:02.769Z,11.50
2018-09-06T06:16:02.852Z,10.90
2018-09-06T06:17:02.818Z,11.20
2018-09-06T06:18:02.837Z,10.90
2018-09-06T06:19:02.861Z,17.20
2018-09-06T06:20:02.974Z,14.70
2018-09-06T06:21:02.908Z,13.80
2018-09-06T06:22:02.930Z,15.90
2018-09-06T06:23:02.954Z,11.70
2018-09-06T06:24:02.980Z,9.20
2018-09-06T06:25:03.002Z,13.90
2018-09-06T06:26:03.045Z,9.90
2018-09-06T06:27:03.052Z,13.30
2018-09-06T06:28:03.226Z,10.90
2018-09-06T06:29:03.145Z,13.20
2018-09-06T06:30:03.127Z,11.10
2018-09-06T06:31:03.148Z,13.20
2018-09-06T06:32:03.170Z,9.40
2018-09-06T06:33:03.195Z,14.10
2018-09-06T06:34:03.258Z,13.40
2018-09-06T06:35:03.260Z,9.50
2018-09-06T06:36:03.270Z,10.60
2018-09-06T06:37:03.300Z,10.90
2018-09-06T06:38:03.325Z,10.50
2018-09-06T06:39:03.349Z,8.40
2018-09-06T06:40:03.375Z,11.30
2018-09-06T06:41:03.415Z,13.80
2018-09-06T06:42:03.424Z,14.70
2018-09-06T06:43:03.453Z,12.50
2018-09-06T06:44:04.204Z,12.50
2018-09-06T06:45:03.505Z,10.60
2018-09-06T06:46:03.543Z,12.50
2018-09-06T06:47:03.552Z,8.60
2018-09-06T06:48:03.595Z,8.80
2018-09-06T06:49:03.604Z,9.50
2018-09-06T06:50:03.627Z,13.10
2018-09-06T06:51:03.654Z,9.80
2018-09-06T06:52:03.681Z,11.10
2018-09-06T06:53:03.706Z,12.50
2018-09-06T06:54:03.737Z,11.20
2018-09-06T06:55:03.761Z,9.50
2018-09-06T06:56:03.782Z,12.90
2018-09-06T06:57:03.809Z,8.00
2018-09-06T06:58:03.838Z,10.20
2018-09-06T06:59:03.860Z,9.00
2018-09-06T07:00:03.889Z,9.70
2018-09-06T07:01:03.976Z,8.20
2018-09-06T07:02:03.945Z,11.30
2018-09-06T07:03:03.970Z,10.30
2018-09-06T07:04:04.007Z,7.90
2018-09-06T07:05:04.023Z,7.10
2018-09-06T07:06:04.047Z,8.90
2018-09-06T07:07:04.137Z,8.00
2018-09-06T07:08:04.104Z,8.10
2018-09-06T07:09:04.132Z,9.30
2018-09-06T07:10:04.155Z,7.90
2018-09-06T07:11:04.192Z,8.90
2018-09-06T07:12:04.207Z,8.10
2018-09-06T07:13:04.235Z,8.30
2018-09-06T07:14:04.264Z,9.40
2018-09-06T07:15:04.287Z,9.00
2018-09-06T07:16:04.317Z,8.80
2018-09-06T07:17:04.345Z,8.80
2018-09-06T07:18:04.377Z,9.20
2018-09-06T07:19:04.400Z,11.20
2018-09-06T07:20:04.425Z,9.00
2018-09-06T07:21:04.490Z,9.30
2018-09-06T07:22:04.482Z,12.20
2018-09-06T07:23:04.512Z,8.20
2018-09-06T07:24:04.539Z,8.30
2018-09-06T07:25:04.621Z,14.20
2018-09-06T07:26:04.595Z,8.80
2018-09-06T07:27:04.621Z,7.50
2018-09-06T07:28:04.648Z,7.80
2018-09-06T07:29:04.706Z,7.60
2018-09-06T07:30:04.719Z,8.70
2018-09-06T07:31:04.738Z,7.10
2018-09-06T07:32:04.756Z,7.00
2018-09-06T07:33:04.790Z,7.90
2018-09-06T07:34:04.816Z,10.50
2018-09-06T07:35:04.879Z,8.30
2018-09-06T07:36:04.872Z,8.90
2018-09-06T07:37:04.904Z,6.10
2018-09-06T07:38:04.927Z,5.90
2018-09-06T07:39:04.955Z,11.00
2018-09-06T07:40:04.987Z,9.10
2018-09-06T07:41:05.028Z,7.60
2018-09-06T07:42:05.043Z,7.70
2018-09-06T07:43:05.067Z,7.10
2018-09-06T07:44:05.100Z,6.30
2018-09-06T07:45:05.127Z,6.40
2018-09-06T07:46:05.153Z,8.90
2018-09-06T07:47:05.187Z,9.20
2018-09-06T07:48:05.224Z,9.00
2018-09-06T07:49:05.237Z,8.10
2018-09-06T07:50:05.325Z,6.10
2018-09-06T07:51:05.296Z,9.60
2018-09-06T07:52:05.334Z,8.70
2018-09-06T07:53:05.353Z,7.90
2018-09-06T07:54:05.511Z,5.90
2018-09-06T07:55:05.425Z,11.20
2018-09-06T07:56:05.443Z,9.90
2018-09-06T07:57:05.481Z,6.00
2018-09-06T07:58:05.497Z,8.20
2018-09-06T07:59:05.530Z,7.30
2018-09-06T08:00:05.555Z,10.90
2018-09-06T08:01:05.584Z,6.40
2018-09-06T08:02:05.610Z,9.40
2018-09-06T08:03:05.641Z,6.00
2018-09-06T08:04:05.673Z,6.70
2018-09-06T08:05:05.698Z,12.20
2018-09-06T08:06:05.726Z,10.00
2018-09-06T08:07:05.757Z,7.60
2018-09-06T08:08:05.784Z,6.80
2018-09-06T08:09:05.815Z,7.00
2018-09-06T08:10:05.854Z,6.90
2018-09-06T08:11:05.873Z,6.90
2018-09-06T08:12:05.919Z,7.70
2018-09-06T08:13:05.930Z,7.10
2018-09-06T08:14:05.957Z,11.50
2018-09-06T08:15:05.988Z,9.40
2018-09-06T08:16:06.016Z,10.50
2018-09-06T08:17:06.042Z,7.10
2018-09-06T08:18:06.074Z,6.80
2018-09-06T08:19:06.101Z,7.80
2018-09-06T08:20:06.134Z,7.60
2018-09-06T08:21:06.162Z,13.00
2018-09-06T08:22:06.191Z,10.50
2018-09-06T08:23:06.215Z,9.80
2018-09-06T08:24:06.247Z,9.70
2018-09-06T08:25:06.271Z,9.10
2018-09-06T08:26:06.300Z,10.20
2018-09-06T08:27:06.334Z,7.20
2018-09-06T08:28:06.353Z,6.50
2018-09-06T08:29:06.380Z,8.00
2018-09-06T08:30:06.407Z,10.60
2018-09-06T08:31:06.522Z,11.40
2018-09-06T08:32:06.463Z,7.50
2018-09-06T08:33:06.487Z,8.40
2018-09-06T08:34:06.516Z,6.90
2018-09-06T08:35:06.562Z,10.10
2018-09-06T08:36:06.565Z,6.80
2018-09-06T08:37:06.597Z,7.40
2018-09-06T08:38:06.619Z,7.80
2018-09-06T08:39:06.647Z,8.60
2018-09-06T08:40:06.671Z,7.60
2018-09-06T08:41:06.697Z,10.90
2018-09-06T08:42:06.722Z,9.80
2018-09-06T08:43:06.748Z,8.00
2018-09-06T08:44:06.776Z,8.50
2018-09-06T08:45:06.800Z,8.40
2018-09-06T08:46:06.826Z,11.10
2018-09-06T08:47:06.870Z,8.20
2018-09-06T08:48:06.872Z,8.60
2018-09-06T08:49:06.900Z,8.60
2018-09-06T08:50:06.926Z,9.00
2018-09-06T08:51:06.950Z,9.70
2018-09-06T08:52:07.037Z,10.10
2018-09-06T08:53:06.999Z,11.10
2018-09-06T08:54:07.024Z,10.20
2018-09-06T08:55:07.055Z,9.60
2018-09-06T08:56:07.083Z,10.60
2018-09-06T08:57:07.101Z,11.70
2018-09-06T08:58:07.121Z,9.10
2018-09-06T08:59:07.165Z,11.50
2018-09-06T09:00:07.173Z,9.90
2018-09-06T09:01:07.218Z,9.90
2018-09-06T09:02:07.306Z,8.30
2018-09-06T09:03:07.289Z,8.90
2018-09-06T09:04:07.320Z,7.70
2018-09-06T09:05:07.294Z,8.10
2018-09-06T09:06:07.363Z,8.50
2018-09-06T09:07:07.342Z,9.70
2018-09-06T09:08:07.366Z,12.00
2018-09-06T09:09:07.390Z,10.20
2018-09-06T09:10:07.414Z,11.60
2018-09-06T09:11:07.439Z,7.80
2018-09-06T09:12:07.459Z,8.30
2018-09-06T09:13:07.490Z,11.70
2018-09-06T09:14:07.512Z,10.50
2018-09-06T09:15:07.535Z,12.20
2018-09-06T09:16:07.606Z,8.20
2018-09-06T09:17:07.582Z,12.70
2018-09-06T09:18:07.610Z,10.00
2018-09-06T09:19:07.633Z,8.40
2018-09-06T09:20:07.653Z,12.60
2018-09-06T09:21:07.676Z,13.70
2018-09-06T09:22:07.797Z,11.60
2018-09-06T09:23:07.727Z,12.30
2018-09-06T09:24:07.753Z,9.00
2018-09-06T09:25:07.772Z,8.20
2018-09-06T09:26:07.925Z,10.80
2018-09-06T09:27:07.848Z,11.70
2018-09-06T09:28:07.844Z,10.20
2018-09-06T09:29:07.875Z,9.80
2018-09-06T09:30:07.910Z,10.20
2018-09-06T09:31:07.923Z,10.80
2018-09-06T09:32:07.936Z,12.80
2018-09-06T09:33:07.962Z,9.30
2018-09-06T09:34:07.988Z,10.30
2018-09-06T09:35:08.020Z,9.10
2018-09-06T09:36:08.093Z,9.50
2018-09-06T09:37:08.061Z,12.80
2018-09-06T09:38:08.082Z,9.00
2018-09-06T09:39:08.109Z,10.30
2018-09-06T09:40:08.135Z,7.80
2018-09-06T09:41:08.154Z,11.80
2018-09-06T09:42:08.202Z,11.90
2018-09-06T09:43:08.231Z,13.20
2018-09-06T09:44:08.226Z,9.10
2018-09-06T09:45:08.257Z,8.60
2018-09-06T09:47:40.134Z,9.80
2018-09-06T09:48:40.127Z,8.50
2018-09-06T09:50:54.218Z,11.50
2018-09-06T09:52:38.188Z,8.90
2018-09-06T09:53:38.140Z,8.30
2018-09-06T09:55:31.235Z,7.90
2018-09-06T09:56:31.246Z,12.30
2018-09-06T09:58:24.383Z,9.80
2018-09-06T09:59:24.362Z,8.70
2018-09-06T10:01:17.448Z,9.90
2018-09-06T10:02:17.467Z,8.90
2018-09-06T10:04:10.592Z,11.10
2018-09-06T10:05:10.580Z,11.80
2018-09-06T10:07:03.670Z,8.20
2018-09-06T10:08:03.684Z,8.90
2018-09-06T10:09:57.317Z,8.60
2018-09-06T10:10:57.282Z,9.70
2018-09-06T10:12:50.420Z,12.70
2018-09-06T10:13:50.386Z,10.60
2018-09-06T10:15:43.479Z,14.00
2018-09-06T10:16:43.524Z,10.10
2018-09-06T10:18:36.605Z,9.90
2018-09-06T10:19:36.603Z,7.90
2018-09-06T10:21:29.690Z,9.20
2018-09-06T10:22:29.704Z,8.40
2018-09-06T10:24:23.814Z,9.20
2018-09-06T10:25:23.806Z,9.20
2018-09-06T10:27:16.946Z,8.50
2018-09-06T10:28:16.961Z,9.30
2018-09-06T10:30:10.132Z,9.10
2018-09-06T10:31:10.106Z,10.70
2018-09-06T10:33:04.217Z,8.40
2018-09-06T10:34:04.210Z,8.10
2018-09-06T10:35:57.304Z,13.30
2018-09-06T10:36:57.438Z,9.70
2018-09-06T10:38:50.432Z,10.50
2018-09-06T10:39:50.477Z,11.20
2018-09-06T10:41:43.522Z,9.30
2018-09-06T10:42:43.546Z,10.30
2018-09-06T10:44:37.057Z,13.30
2018-09-06T10:45:36.765Z,8.70
2018-09-06T10:47:29.761Z,11.40
2018-09-06T10:48:29.769Z,11.20
2018-09-06T10:50:22.885Z,11.80
2018-09-06T10:51:22.869Z,8.50
2018-09-06T10:53:17.003Z,12.00
2018-09-06T10:54:16.963Z,8.50
2018-09-06T10:56:10.054Z,9.60
2018-09-06T10:57:10.079Z,9.80
2018-09-06T10:59:03.192Z,12.80
2018-09-06T11:00:03.175Z,10.70
2018-09-06T11:02:08.128Z,10.60
2018-09-06T11:03:08.138Z,8.80
2018-09-06T11:05:01.306Z,10.10
2018-09-06T11:06:01.263Z,9.90
2018-09-06T11:07:54.373Z,8.30
2018-09-06T11:08:54.359Z,10.60
2018-09-06T11:10:47.491Z,8.20
2018-09-06T11:11:47.473Z,8.00
2018-09-06T11:13:40.611Z,8.90
2018-09-06T11:14:40.589Z,9.50
2018-09-06T11:16:33.686Z,10.50
2018-09-06T11:17:33.818Z,9.10
2018-09-06T11:19:26.832Z,9.50
2018-09-06T11:20:26.821Z,9.80
2018-09-06T11:22:20.004Z,12.80
2018-09-06T11:23:19.909Z,11.10
2018-09-06T11:25:13.024Z,9.30
2018-09-06T11:26:13.018Z,9.20
2018-09-06T11:28:07.603Z,11.60
2018-09-06T11:29:07.627Z,13.60
2018-09-06T11:31:00.765Z,12.10
2018-09-06T11:32:00.759Z,10.30
2018-09-06T11:33:54.881Z,10.90
2018-09-06T11:34:54.860Z,11.20
2018-09-06T11:36:47.953Z,12.50
2018-09-06T11:37:47.948Z,11.20
2018-09-06T11:39:41.080Z,14.50
2018-09-06T11:40:41.078Z,13.00
2018-09-06T11:41:41.090Z,13.40
2018-09-06T11:42:41.123Z,9.70
2018-09-06T11:43:41.147Z,11.50
2018-09-06T11:44:41.174Z,12.00
2018-09-06T11:45:41.186Z,12.60
2018-09-06T11:46:41.226Z,10.00
2018-09-06T11:47:41.381Z,9.00
2018-09-06T11:48:41.277Z,16.00
2018-09-06T11:49:41.302Z,17.70
2018-09-06T11:50:41.310Z,10.50
2018-09-06T11:51:41.373Z,12.20
2018-09-06T11:52:41.359Z,13.50
2018-09-06T11:53:41.391Z,10.20
2018-09-06T11:54:41.406Z,10.40
2018-09-06T11:55:41.435Z,13.30
2018-09-06T11:56:41.457Z,8.80
2018-09-06T11:57:41.478Z,10.60
2018-09-06T11:58:41.496Z,14.10
2018-09-06T11:59:41.526Z,13.80
2018-09-06T12:00:41.561Z,12.60
2018-09-06T12:01:41.584Z,9.60
2018-09-06T12:02:41.600Z,12.90
2018-09-06T12:03:41.622Z,16.00
2018-09-06T12:04:41.646Z,10.50
2018-09-06T12:05:41.682Z,12.60
2018-09-06T12:06:41.704Z,11.10
2018-09-06T12:07:41.716Z,13.00
2018-09-06T12:08:41.749Z,15.30
2018-09-06T12:09:41.772Z,9.60
2018-09-06T12:10:41.807Z,11.50
2018-09-06T12:11:41.823Z,11.60
2018-09-06T12:12:41.839Z,11.60
2018-09-06T12:13:41.908Z,10.60
2018-09-06T12:14:41.901Z,12.30
2018-09-06T12:15:41.912Z,9.10
2018-09-06T12:16:41.944Z,10.20
2018-09-06T12:17:41.968Z,11.20
2018-09-06T12:18:42.004Z,13.20
2018-09-06T12:19:42.014Z,15.80
2018-09-06T12:20:42.034Z,12.80
2018-09-06T12:21:42.059Z,13.70
2018-09-06T12:22:42.084Z,9.80
2018-09-06T12:23:42.104Z,12.70
2018-09-06T12:24:42.139Z,12.30
2018-09-06T12:25:42.231Z,10.40
2018-09-06T12:26:42.180Z,14.10
2018-09-06T12:27:42.203Z,12.20
2018-09-06T12:28:42.239Z,12.40
2018-09-06T12:29:42.261Z,11.10
2018-09-06T12:30:42.276Z,12.90
2018-09-06T12:31:42.301Z,10.10
2018-09-06T12:32:42.371Z,13.90
2018-09-06T12:33:42.417Z,11.00
2018-09-06T12:34:42.380Z,10.10
2018-09-06T12:35:42.400Z,12.00
2018-09-06T12:36:42.427Z,12.80
2018-09-06T12:37:42.451Z,10.50
2018-09-06T12:38:42.516Z,12.30
2018-09-06T12:39:42.501Z,10.70
2018-09-06T12:40:42.524Z,10.80
2018-09-06T12:41:42.550Z,14.20
2018-09-06T12:42:42.574Z,12.10
2018-09-06T12:43:42.597Z,11.80
2018-09-06T12:44:42.623Z,11.60
2018-09-06T12:45:42.644Z,10.30
2018-09-06T12:46:42.693Z,10.60
2018-09-06T12:47:42.692Z,10.50
2018-09-06T12:48:42.720Z,12.40
2018-09-06T12:49:42.792Z,10.90
2018-09-06T12:50:42.780Z,10.50
2018-09-06T12:51:42.803Z,11.30
2018-09-06T12:52:42.827Z,14.00
2018-09-06T12:53:42.846Z,14.70
2018-09-06T12:54:42.886Z,14.50
2018-09-06T12:55:42.901Z,16.60
2018-09-06T12:56:42.939Z,12.20
2018-09-06T12:57:42.942Z,19.90
2018-09-06T12:58:42.971Z,15.20
2018-09-06T12:59:42.991Z,15.10
2018-09-06T13:00:43.019Z,17.30
2018-09-06T13:01:43.044Z,17.40
2018-09-06T13:02:43.073Z,41.80
2018-09-06T13:03:43.094Z,33.90
2018-09-06T13:04:43.116Z,16.30
2018-09-06T13:05:43.144Z,15.20
2018-09-06T13:06:43.164Z,14.20
2018-09-06T13:07:43.183Z,14.90
2018-09-06T13:08:43.217Z,16.40
2018-09-06T13:09:43.239Z,17.90
2018-09-06T13:10:43.278Z,16.50
2018-09-06T13:11:43.290Z,20.50
2018-09-06T13:12:43.314Z,19.10
2018-09-06T13:13:43.352Z,21.80
2018-09-06T13:14:43.360Z,20.90
2018-09-06T13:15:43.379Z,20.00
2018-09-06T13:16:43.411Z,18.70
2018-09-06T13:17:43.434Z,22.20
2018-09-06T13:18:43.672Z,15.80
2018-09-06T13:19:43.479Z,18.50
2018-09-06T13:20:43.505Z,21.80
2018-09-06T13:21:43.530Z,22.20
2018-09-06T13:22:43.569Z,17.60
2018-09-06T13:23:43.584Z,13.80
2018-09-06T13:24:43.607Z,19.80
2018-09-06T13:25:43.633Z,18.60
2018-09-06T13:26:43.661Z,19.00
2018-09-06T13:27:43.678Z,18.70
2018-09-06T13:28:43.707Z,18.50
2018-09-06T13:29:43.740Z,16.60
2018-09-06T13:30:43.760Z,19.40
2018-09-06T13:31:43.808Z,17.10
2018-09-06T13:32:43.801Z,18.10
2018-09-06T13:33:43.825Z,21.00
2018-09-06T13:34:43.843Z,27.20
2018-09-06T13:35:43.915Z,18.90